Time;durP1;ratioP1;P1;durP2;ratioP2;P2;SDS_P1;SDS_P2;PMS_P1;PMS_P2;Temp;Humidity;BMP_temperature;BMP_pressure;BME280_temperature;BME280_humidity;BME280_pressure;Samples;Min_cycle;Max_cycle;Signal;HPM_P1;HPM_P2
2024/03/05 00:02:14;;;;;;;15.30;11.68;;;7.30;99.90;;;;;;5092498;28;20383;-84
2024/03/05 00:04:40;;;;;;;14.60;11.57;;;7.30;99.90;;;;;;5092156;28;20118;-84
2024/03/05 00:07:07;;;;;;;16.58;11.25;;;7.30;99.90;;;;;;5075688;28;20101;-84
2024/03/05 00:09:33;;;;;;;15.73;11.40;;;7.20;99.90;;;;;;5076001;28;20536;-84
2024/03/05 00:11:59;;;;;;;15.57;11.45;;;7.20;99.90;;;;;;5092967;28;20029;-84
2024/03/05 00:14:24;;;;;;;16.45;11.68;;;7.20;99.90;;;;;;5098107;28;20365;-83
2024/03/05 00:16:50;;;;;;;15.05;11.68;;;7.20;99.90;;;;;;5117375;28;20012;-84
2024/03/05 00:19:16;;;;;;;16.48;12.25;;;7.10;99.90;;;;;;5117549;28;20017;-84
2024/03/05 00:21:42;;;;;;;15.70;11.57;;;7.10;99.90;;;;;;5099299;28;20020;-84
2024/03/05 00:24:08;;;;;;;15.45;11.48;;;7.10;99.90;;;;;;5081763;28;20051;-83
2024/03/05 00:26:36;;;;;;;14.65;10.73;;;7.10;99.90;;;;;;5077499;28;20024;-83
2024/03/05 00:29:03;;;;;;;18.38;12.00;;;7.10;99.90;;;;;;5063233;28;20115;-83
2024/03/05 00:31:29;;;;;;;16.63;11.95;;;7.10;99.90;;;;;;5095736;28;20024;-84
2024/03/05 00:33:55;;;;;;;15.82;11.57;;;7.20;99.90;;;;;;5078537;28;20434;-84
2024/03/05 00:36:21;;;;;;;18.48;12.45;;;7.10;99.90;;;;;;5095360;28;20024;-83
2024/03/05 00:38:46;;;;;;;18.65;12.15;;;7.10;99.90;;;;;;5063092;28;20054;-82
2024/03/05 00:41:13;;;;;;;17.40;12.05;;;7.10;99.90;;;;;;5074978;28;20020;-83
2024/03/05 00:43:39;;;;;;;16.33;12.23;;;7.10;99.90;;;;;;5086413;28;20025;-83
2024/03/05 00:46:06;;;;;;;16.13;11.38;;;7.20;99.90;;;;;;5089360;28;20476;-84
2024/03/05 00:48:32;;;;;;;19.60;11.85;;;7.20;99.90;;;;;;5088919;28;20489;-84
2024/03/05 00:50:58;;;;;;;19.15;13.30;;;7.20;99.90;;;;;;5078221;28;20024;-84
2024/03/05 00:53:23;;;;;;;17.52;12.50;;;7.30;99.90;;;;;;5091367;28;20025;-84
2024/03/05 00:55:49;;;;;;;17.67;12.95;;;7.30;99.90;;;;;;5075892;28;20025;-84
2024/03/05 00:58:15;;;;;;;18.25;14.18;;;7.40;99.90;;;;;;5063451;28;20031;-84
2024/03/05 01:00:42;;;;;;;19.25;13.43;;;7.40;99.90;;;;;;5065300;28;20055;-84
2024/03/05 01:03:10;;;;;;;19.92;12.82;;;7.40;99.90;;;;;;5078168;28;20020;-84
2024/03/05 01:05:36;;;;;;;16.70;12.70;;;7.50;99.90;;;;;;5058169;28;20067;-83
2024/03/05 01:08:02;;;;;;;17.88;12.93;;;7.50;99.90;;;;;;5082281;28;20024;-83
2024/03/05 01:10:29;;;;;;;18.42;13.60;;;7.50;99.90;;;;;;5091158;28;20025;-83
2024/03/05 01:12:56;;;;;;;18.05;14.13;;;7.50;99.90;;;;;;5043326;28;20111;-84
2024/03/05 01:15:22;;;;;;;20.92;13.48;;;7.50;99.90;;;;;;5077581;28;20383;-83
2024/03/05 01:17:48;;;;;;;18.00;13.00;;;7.60;99.90;;;;;;5082786;28;20021;-84
2024/03/05 01:20:16;;;;;;;19.20;13.38;;;7.60;99.90;;;;;;5074667;28;20422;-84
2024/03/05 01:22:46;;;;;;;17.40;12.45;;;7.60;99.90;;;;;;5057748;28;20384;-83
2024/03/05 01:25:12;;;;;;;21.90;14.63;;;7.60;99.90;;;;;;5074476;28;20025;-83
2024/03/05 01:27:39;;;;;;;21.25;13.70;;;7.60;99.90;;;;;;5088668;28;20039;-83
2024/03/05 01:30:10;;;;;;;18.48;13.70;;;7.70;99.90;;;;;;5077537;28;20115;-83
2024/03/05 01:32:37;;;;;;;18.63;13.27;;;7.70;99.90;;;;;;5094625;28;20032;-83
2024/03/05 01:35:11;;;;;;;20.45;13.60;;;7.70;99.90;;;;;;5057418;28;20027;-84
2024/03/05 01:37:40;;;;;;;17.33;13.07;;;7.70;99.90;;;;;;5081570;28;20026;-84
2024/03/05 01:40:08;;;;;;;18.73;13.55;;;7.70;99.90;;;;;;5090656;28;20095;-83
2024/03/05 01:42:34;;;;;;;16.85;12.73;;;7.70;99.90;;;;;;5098994;28;20013;-83
2024/03/05 01:45:00;;;;;;;20.52;12.95;;;7.70;99.90;;;;;;5099033;28;20031;-83
2024/03/05 01:47:33;;;;;;;21.83;13.98;;;7.80;99.90;;;;;;5101247;28;20133;-83
2024/03/05 01:50:00;;;;;;;17.35;13.23;;;7.70;99.90;;;;;;5105751;28;20032;-83
2024/03/05 01:52:27;;;;;;;16.92;13.02;;;7.80;99.90;;;;;;5079797;28;20613;-84
2024/03/05 01:55:00;;;;;;;20.70;14.20;;;7.80;99.90;;;;;;5075460;28;20071;-84
2024/03/05 01:57:26;;;;;;;21.98;14.07;;;7.80;99.90;;;;;;5074928;28;20453;-83
2024/03/05 01:59:52;;;;;;;16.83;13.25;;;7.80;99.90;;;;;;5063891;28;20056;-84
2024/03/05 02:02:18;;;;;;;19.77;14.00;;;7.80;99.90;;;;;;5075625;28;20476;-83
2024/03/05 02:04:45;;;;;;;19.02;13.82;;;7.80;99.90;;;;;;5093945;28;20036;-84
2024/03/05 02:07:11;;;;;;;23.10;14.80;;;7.80;99.90;;;;;;5073202;28;20020;-83
2024/03/05 02:09:37;;;;;;;22.50;15.23;;;7.80;99.90;;;;;;5088212;28;20031;-83
2024/03/05 02:12:03;;;;;;;22.52;15.13;;;7.80;99.90;;;;;;5082954;28;20020;-84
2024/03/05 02:14:30;;;;;;;18.80;14.25;;;7.80;99.90;;;;;;5073362;28;20119;-84
2024/03/05 02:16:57;;;;;;;20.55;14.43;;;7.80;99.90;;;;;;5085061;28;20035;-84
2024/03/05 02:19:23;;;;;;;20.30;14.50;;;7.80;99.90;;;;;;5050037;28;20028;-83
2024/03/05 02:22:02;;;;;;;23.63;15.68;;;7.80;99.90;;;;;;5093167;28;20020;-84
2024/03/05 02:24:29;;;;;;;23.58;15.70;;;7.80;99.90;;;;;;5094693;28;20395;-83
2024/03/05 02:26:56;;;;;;;24.55;16.17;;;7.80;99.90;;;;;;5093282;28;20028;-83
2024/03/05 02:29:23;;;;;;;24.10;17.20;;;7.70;99.90;;;;;;5093302;28;20020;-83
2024/03/05 02:31:52;;;;;;;24.20;16.95;;;7.80;99.90;;;;;;5075342;28;20084;-84
2024/03/05 02:34:18;;;;;;;25.73;17.17;;;7.80;99.90;;;;;;5068117;28;20036;-84
2024/03/05 02:36:44;;;;;;;24.02;17.73;;;7.80;99.90;;;;;;5056476;28;20033;-83
2024/03/05 02:39:10;;;;;;;23.77;18.15;;;7.80;99.90;;;;;;5072881;28;20434;-84
2024/03/05 02:41:36;;;;;;;26.92;17.67;;;7.80;99.90;;;;;;5090803;28;20034;-84
2024/03/05 02:44:03;;;;;;;24.55;18.15;;;7.80;99.90;;;;;;5076725;28;20028;-83
2024/03/05 02:46:29;;;;;;;26.90;17.80;;;7.80;99.90;;;;;;5077227;28;20104;-83
2024/03/05 02:48:55;;;;;;;25.88;17.33;;;7.80;99.90;;;;;;5074090;28;20059;-83
2024/03/05 02:51:21;;;;;;;24.67;17.75;;;7.80;99.90;;;;;;5053194;28;20016;-84
2024/03/05 02:53:47;;;;;;;25.25;18.05;;;7.90;99.90;;;;;;5077695;28;20040;-83
2024/03/05 02:56:12;;;;;;;28.50;18.05;;;7.90;99.90;;;;;;5095677;28;20032;-84
2024/03/05 02:58:39;;;;;;;26.85;17.88;;;7.90;99.90;;;;;;5078054;28;20055;-84
2024/03/05 03:01:07;;;;;;;23.23;16.98;;;7.90;99.90;;;;;;5105266;28;20084;-84
2024/03/05 03:03:34;;;;;;;25.67;16.75;;;7.90;99.90;;;;;;5108003;28;20013;-84
2024/03/05 03:06:01;;;;;;;24.98;17.05;;;7.90;99.90;;;;;;5081396;28;20025;-84
2024/03/05 03:08:27;;;;;;;24.05;16.88;;;8.00;99.90;;;;;;5117410;28;20023;-84
2024/03/05 03:10:53;;;;;;;24.65;17.30;;;8.00;99.90;;;;;;5100014;28;20036;-84
2024/03/05 03:13:18;;;;;;;24.88;18.08;;;8.00;99.90;;;;;;5068838;28;20043;-84
2024/03/05 03:15:44;;;;;;;25.25;17.15;;;8.00;99.90;;;;;;5093656;28;20452;-84
2024/03/05 03:18:10;;;;;;;28.00;19.10;;;8.00;99.90;;;;;;5082597;28;20519;-84
2024/03/05 03:20:36;;;;;;;23.02;17.58;;;8.10;99.90;;;;;;5072430;28;20032;-84
2024/03/05 03:23:02;;;;;;;24.10;17.40;;;8.10;99.90;;;;;;5071949;28;20061;-84
2024/03/05 03:25:30;;;;;;;25.13;18.08;;;8.10;99.90;;;;;;5039266;28;20055;-84
2024/03/05 03:27:58;;;;;;;26.15;17.35;;;8.10;99.90;;;;;;5055867;28;20044;-84
2024/03/05 03:30:29;;;;;;;23.65;17.52;;;8.10;99.90;;;;;;5072245;28;20024;-84
2024/03/05 03:32:55;;;;;;;;;;;8.20;99.90;;;;;;5072862;28;20024;-84
2024/03/05 03:35:21;;;;;;;26.85;17.95;;;8.20;99.90;;;;;;5072401;28;19912;-84
2024/03/05 03:37:48;;;;;;;23.80;17.55;;;8.20;99.90;;;;;;5039121;28;20071;-83
2024/03/05 03:40:20;;;;;;;24.52;17.40;;;8.20;99.90;;;;;;5055428;28;20029;-82
2024/03/05 03:42:47;;;;;;;24.25;17.52;;;8.20;99.90;;;;;;5056683;28;20115;-84
2024/03/05 03:45:17;;;;;;;23.38;17.15;;;8.20;99.90;;;;;;5073040;28;20078;-84
2024/03/05 03:47:45;;;;;;;24.38;17.90;;;8.30;99.90;;;;;;5072033;28;20028;-84
2024/03/05 03:50:11;;;;;;;23.50;16.83;;;8.30;99.90;;;;;;5071584;28;20110;-84
2024/03/05 03:52:39;;;;;;;27.95;18.35;;;8.30;99.90;;;;;;5038721;28;20476;-84
2024/03/05 03:55:05;;;;;;;29.30;19.55;;;8.30;99.90;;;;;;5071806;28;20559;-84
2024/03/05 03:57:32;;;;;;;28.65;20.58;;;8.20;99.90;;;;;;5072255;28;20024;-83
2024/03/05 04:00:00;;;;;;;28.77;18.85;;;8.20;99.90;;;;;;5072743;28;20110;-83
2024/03/05 04:02:25;;;;;;;26.52;18.70;;;8.20;99.90;;;;;;5059231;28;20028;-83
2024/03/05 04:04:51;;;;;;;29.20;19.30;;;8.20;99.90;;;;;;5077169;28;20116;-83
2024/03/05 04:07:18;;;;;;;28.17;18.63;;;8.20;99.90;;;;;;5058862;28;20040;-83
2024/03/05 04:09:44;;;;;;;27.98;19.13;;;8.20;99.90;;;;;;5075744;28;20419;-84
2024/03/05 04:12:14;;;;;;;29.75;20.50;;;8.20;99.90;;;;;;5075491;28;20099;-83
2024/03/05 04:14:40;;;;;;;30.77;20.08;;;8.20;99.90;;;;;;5058989;28;20086;-83
2024/03/05 04:17:06;;;;;;;31.67;20.70;;;8.10;99.90;;;;;;5059011;28;20028;-83
2024/03/05 04:19:32;;;;;;;33.55;21.08;;;8.20;99.90;;;;;;5075659;28;20028;-84
2024/03/05 04:21:58;;;;;;;31.23;20.95;;;8.10;99.90;;;;;;5076181;28;20376;-83
2024/03/05 04:24:24;;;;;;;32.85;20.67;;;8.10;99.90;;;;;;5075635;28;20114;-83
2024/03/05 04:26:52;;;;;;;33.17;22.58;;;8.00;99.90;;;;;;5059648;28;20104;-83
2024/03/05 04:29:19;;;;;;;31.48;21.13;;;8.00;99.90;;;;;;5060279;28;20043;-84
2024/03/05 04:32:08;;;;;;;34.95;22.98;;;8.00;99.90;;;;;;5047525;28;20032;-84
2024/03/05 04:34:40;;;;;;;32.65;21.55;;;8.00;99.90;;;;;;5094453;28;20027;-85
2024/03/05 04:37:12;;;;;;;31.83;20.45;;;8.00;99.90;;;;;;5100112;28;20004;-84
2024/03/05 04:39:38;;;;;;;29.80;21.02;;;8.00;99.90;;;;;;5101195;28;20028;-83
2024/03/05 04:42:04;;;;;;;34.92;21.75;;;8.00;99.90;;;;;;5098506;28;20056;-83
2024/03/05 04:44:31;;;;;;;34.95;23.27;;;8.00;99.90;;;;;;5081665;28;20036;-83
2024/03/05 04:46:57;;;;;;;37.45;23.92;;;8.00;99.90;;;;;;5059180;28;20032;-83
2024/03/05 04:49:22;;;;;;;36.65;23.50;;;7.90;99.90;;;;;;5058578;28;20498;-82
2024/03/05 04:51:49;;;;;;;35.80;22.75;;;7.90;99.90;;;;;;5041739;28;20028;-83
2024/03/05 04:54:15;;;;;;;38.55;24.27;;;8.00;99.90;;;;;;5041916;28;20131;-83
2024/03/05 04:56:41;;;;;;;33.10;22.40;;;7.90;99.90;;;;;;5075096;28;20066;-82
2024/03/05 04:59:06;;;;;;;36.42;23.27;;;7.90;99.90;;;;;;5058126;28;20093;-83
2024/03/05 05:01:32;;;;;;;38.63;24.33;;;7.90;99.90;;;;;;5058073;28;20040;-84
2024/03/05 05:03:58;;;;;;;37.10;22.63;;;7.80;99.90;;;;;;5042629;28;20098;-84
2024/03/05 05:06:25;;;;;;;35.65;22.42;;;7.80;99.90;;;;;;5058098;28;20032;-84
2024/03/05 05:08:51;;;;;;;39.97;23.77;;;7.80;99.90;;;;;;5074950;28;20048;-84
2024/03/05 05:11:16;;;;;;;37.58;23.60;;;7.80;99.90;;;;;;5067079;28;20424;-83
2024/03/05 05:13:42;;;;;;;39.65;24.48;;;7.80;99.90;;;;;;5066877;28;20035;-82
2024/03/05 05:16:11;;;;;;;41.22;24.15;;;7.80;99.90;;;;;;5095340;28;20027;-84
2024/03/05 05:18:38;;;;;;;42.78;24.40;;;7.70;99.90;;;;;;5091093;28;20071;-84
2024/03/05 05:21:07;;;;;;;38.33;23.83;;;7.70;99.90;;;;;;5074729;28;20392;-83
2024/03/05 05:23:33;;;;;;;36.13;24.02;;;7.70;99.90;;;;;;5074831;28;20056;-83
2024/03/05 05:25:59;;;;;;;40.17;24.48;;;7.70;99.90;;;;;;5058455;28;20074;-83
2024/03/05 05:28:25;;;;;;;38.35;23.58;;;7.80;99.90;;;;;;5080124;28;20032;-83
2024/03/05 05:30:51;;;;;;;41.00;23.05;;;7.80;99.90;;;;;;5072787;28;20032;-84
2024/03/05 05:33:17;;;;;;;39.83;23.02;;;7.80;99.90;;;;;;5096441;28;20028;-83
2024/03/05 05:35:43;;;;;;;36.03;21.52;;;7.80;99.90;;;;;;5089321;28;20392;-83
2024/03/05 05:38:10;;;;;;;32.85;20.48;;;7.90;99.90;;;;;;5085485;28;20067;-82
2024/03/05 05:40:36;;;;;;;35.63;23.02;;;7.90;99.90;;;;;;5078653;28;20035;-83
2024/03/05 05:43:02;;;;;;;34.00;21.48;;;8.00;99.90;;;;;;5092502;28;20036;-83
2024/03/05 05:45:28;;;;;;;36.95;22.17;;;8.00;99.90;;;;;;5068406;28;20020;-83
2024/03/05 05:47:56;;;;;;;34.70;22.48;;;8.00;99.90;;;;;;5075090;28;20170;-83
2024/03/05 05:50:25;;;;;;;32.20;20.27;;;8.10;99.90;;;;;;5054781;28;20032;-84
2024/03/05 05:52:55;;;;;;;32.17;19.42;;;8.10;99.90;;;;;;5090368;28;20023;-84
2024/03/05 05:55:27;;;;;;;33.80;20.90;;;8.10;99.90;;;;;;5075407;28;20372;-85
2024/03/05 05:57:53;;;;;;;37.22;21.95;;;8.20;99.90;;;;;;5085973;28;20114;-84
2024/03/05 06:00:35;;;;;;;35.85;21.75;;;8.10;99.90;;;;;;5080895;28;20024;-87
2024/03/05 06:03:09;;;;;;;32.95;20.80;;;8.10;99.90;;;;;;5139403;28;20039;-83
2024/03/05 06:05:36;;;;;;;36.50;21.95;;;8.10;99.90;;;;;;5121451;28;20019;-84
2024/03/05 06:08:10;;;;;;;39.53;23.45;;;8.10;99.90;;;;;;5115724;28;20020;-83
2024/03/05 06:10:41;;;;;;;34.17;20.60;;;8.00;99.90;;;;;;5099918;28;20055;-84
2024/03/05 06:13:07;;;;;;;39.25;22.42;;;8.10;99.90;;;;;;5110916;28;20379;-84
2024/03/05 06:15:34;;;;;;;34.47;21.23;;;8.10;99.90;;;;;;5093420;28;20112;-82
2024/03/05 06:18:00;;;;;;;36.13;22.40;;;8.10;99.90;;;;;;5059806;28;20035;-83
2024/03/05 06:20:29;;;;;;;33.60;21.65;;;8.00;99.90;;;;;;5055326;28;20044;-81
2024/03/05 06:22:57;;;;;;;31.77;21.08;;;8.10;99.90;;;;;;5072218;28;20032;-82
2024/03/05 06:25:22;;;;;;;38.28;23.08;;;8.10;99.90;;;;;;5081080;28;20024;-82
2024/03/05 06:27:48;;;;;;;35.55;21.40;;;8.10;99.90;;;;;;5075377;28;20104;-83
2024/03/05 06:30:17;;;;;;;34.85;21.02;;;8.10;99.90;;;;;;5081023;28;20023;-84
2024/03/05 06:32:48;;;;;;;37.60;22.33;;;8.10;99.90;;;;;;5087525;28;20464;-84
2024/03/05 06:35:14;;;;;;;33.95;20.88;;;8.20;99.90;;;;;;5103081;28;20019;-83
2024/03/05 06:37:43;;;;;;;36.75;21.92;;;8.20;99.90;;;;;;5108382;28;20023;-83
2024/03/05 06:40:11;;;;;;;36.40;21.73;;;8.20;99.90;;;;;;5050035;28;20073;-84
2024/03/05 06:42:51;;;;;;;34.67;21.20;;;8.20;99.90;;;;;;5109524;28;20459;-84
2024/03/05 06:45:24;;;;;;;38.73;23.17;;;8.30;99.90;;;;;;5084110;28;20047;-86
2024/03/05 07:04:40;;;;;;;34.78;20.45;;;8.40;99.90;;;;;;5348060;22;20118;-90
2024/03/05 07:07:07;;;;;;;34.88;20.63;;;8.40;99.90;;;;;;5057111;28;20029;-90
2024/03/05 07:16:17;;;;;;;41.00;23.95;;;8.50;99.90;;;;;;5283110;22;20097;-91
2024/03/05 07:18:48;;;;;;;43.25;23.60;;;8.50;99.90;;;;;;5015137;28;20033;-91
2024/03/05 07:21:14;;;;;;;39.93;23.60;;;8.40;99.90;;;;;;5014668;28;20025;-91
2024/03/05 07:23:39;;;;;;;42.15;24.20;;;8.40;99.90;;;;;;5014799;28;20034;-92
2024/03/05 07:26:30;;;;;;;;;;;;;;;;;;;;;
2024/03/05 07:28:57;;;;;;;38.63;22.27;;;8.40;99.90;;;;;;5019437;28;20089;-91
2024/03/05 07:31:24;;;;;;;42.15;24.88;;;8.40;99.90;;;;;;5036968;28;20026;-91
2024/03/05 07:33:50;;;;;;;45.17;25.05;;;8.40;99.90;;;;;;5020826;28;20010;-91
2024/03/05 07:36:21;;;;;;;44.17;25.95;;;8.40;99.90;;;;;;5020462;28;20049;-90
2024/03/05 07:38:49;;;;;;;;;;;8.30;99.90;;;;;;4993556;28;20057;-90
2024/03/05 07:41:17;;;;;;;43.10;24.15;;;8.40;99.90;;;;;;5016560;28;19912;-91
2024/03/05 07:43:43;;;;;;;43.70;25.15;;;8.40;99.90;;;;;;5015438;28;20036;-90
2024/03/05 07:46:09;;;;;;;46.97;24.90;;;8.50;99.90;;;;;;4998479;28;20120;-91
2024/03/05 07:48:35;;;;;;;42.83;25.10;;;8.60;99.90;;;;;;5014824;28;20452;-91
2024/03/05 07:51:00;;;;;;;41.67;23.83;;;8.60;99.90;;;;;;5015174;28;20057;-90
2024/03/05 07:53:26;;;;;;;43.30;24.95;;;8.70;99.90;;;;;;5015899;28;20041;-88
2024/03/05 07:55:52;;;;;;;47.22;25.90;;;8.70;99.90;;;;;;5015935;28;20086;-90
2024/03/05 07:58:21;;;;;;;46.40;26.45;;;8.80;99.90;;;;;;4998804;28;20030;-93
2024/03/05 08:00:47;;;;;;;50.67;26.98;;;8.90;99.90;;;;;;4998216;28;20507;-90
2024/03/05 08:03:14;;;;;;;47.53;25.83;;;8.90;99.90;;;;;;5014478;28;20168;-91
2024/03/05 08:05:41;;;;;;;47.67;26.63;;;8.90;99.90;;;;;;5014699;28;20022;-90
2024/03/05 08:08:07;;;;;;;48.63;26.85;;;9.00;99.90;;;;;;5020321;28;20022;-90
2024/03/05 08:10:34;;;;;;;47.47;27.38;;;9.00;99.90;;;;;;5000758;28;20026;-90
2024/03/05 08:13:01;;;;;;;45.42;25.17;;;9.10;99.90;;;;;;5019111;28;20121;-92
2024/03/05 08:15:30;;;;;;;51.97;27.60;;;9.10;99.90;;;;;;5023439;28;20033;-91
2024/03/05 08:17:56;;;;;;;48.45;27.33;;;9.20;99.90;;;;;;5016595;28;20049;-91
2024/03/05 08:20:26;;;;;;;53.28;28.00;;;9.20;99.90;;;;;;5014314;28;20018;-90
2024/03/05 08:22:54;;;;;;;53.40;28.63;;;9.20;99.90;;;;;;5014425;28;20026;-91
2024/03/05 08:25:24;;;;;;;55.28;31.02;;;9.20;99.90;;;;;;5014978;28;20030;-90
2024/03/05 08:27:54;;;;;;;56.85;30.80;;;9.20;99.90;;;;;;5015441;28;20163;-90
2024/03/05 08:30:25;;;;;;;51.53;29.27;;;9.20;99.90;;;;;;4997759;28;20037;-91
2024/03/05 08:32:52;;;;;;;51.65;29.85;;;9.20;99.90;;;;;;5014070;28;20030;-90
2024/03/05 08:35:19;;;;;;;53.47;30.77;;;9.30;99.90;;;;;;4997866;28;20034;-91
2024/03/05 08:37:46;;;;;;;54.85;31.90;;;9.30;99.90;;;;;;5012482;28;20021;-91
2024/03/05 08:40:16;;;;;;;54.13;29.80;;;9.40;99.90;;;;;;4996717;28;20018;-91
2024/03/05 08:42:47;;;;;;;55.83;30.95;;;9.40;99.90;;;;;;4995463;28;20026;-90
2024/03/05 08:45:20;;;;;;;54.55;30.80;;;9.50;99.90;;;;;;4979113;28;20069;-90
2024/03/05 08:47:54;;;;;;;52.17;30.33;;;9.50;99.90;;;;;;5014045;28;20118;-90
2024/03/05 08:50:28;;;;;;;56.70;31.73;;;9.50;99.90;;;;;;5035880;28;20523;-91
2024/03/05 08:52:54;;;;;;;57.78;30.50;;;9.60;99.90;;;;;;5013184;28;20034;-92
2024/03/05 08:55:20;;;;;;;56.03;31.08;;;9.60;99.90;;;;;;4986760;28;20030;-91
2024/03/05 08:57:46;;;;;;;55.75;31.45;;;9.60;99.90;;;;;;5013326;28;20057;-91
2024/03/05 09:00:17;;;;;;;56.22;29.48;;;9.70;99.90;;;;;;5031465;28;20010;-89
2024/03/05 09:02:43;;;;;;;54.60;31.10;;;9.70;99.90;;;;;;5036268;28;20478;-90
2024/03/05 09:05:12;;;;;;;54.95;31.38;;;9.80;99.90;;;;;;5014279;28;20097;-92
2024/03/05 09:07:44;;;;;;;58.42;32.08;;;9.80;99.90;;;;;;5012605;28;20029;-91
2024/03/05 09:10:10;;;;;;;56.30;31.13;;;9.80;99.90;;;;;;4988884;28;20028;-90
2024/03/05 09:12:37;;;;;;;59.17;32.42;;;9.90;99.90;;;;;;5005089;28;20505;-91
2024/03/05 09:15:05;;;;;;;56.90;30.58;;;9.90;99.90;;;;;;5017742;28;20026;-92
2024/03/05 09:17:37;;;;;;;55.95;32.20;;;9.90;99.90;;;;;;5015924;28;20057;-91
2024/03/05 09:20:13;;;;;;;56.80;31.40;;;10.00;99.90;;;;;;5007359;28;20037;-91
2024/03/05 09:22:44;;;;;;;58.72;33.13;;;10.00;99.90;;;;;;4991815;28;20030;-90
2024/03/05 09:25:12;;;;;;;54.90;32.55;;;10.00;99.90;;;;;;4982672;28;20065;-91
2024/03/05 09:27:38;;;;;;;59.70;33.90;;;10.10;99.90;;;;;;5017201;28;20026;-90
2024/03/05 09:30:07;;;;;;;60.05;33.03;;;10.10;99.90;;;;;;5016034;28;20026;-91
2024/03/05 09:32:35;;;;;;;57.15;33.85;;;10.10;99.90;;;;;;5016686;28;20386;-89
2024/03/05 09:35:04;;;;;;;61.97;33.88;;;10.10;99.90;;;;;;5020456;28;20038;-91
2024/03/05 09:37:31;;;;;;;60.88;34.95;;;10.10;99.90;;;;;;5015686;28;20024;-91
2024/03/05 09:39:56;;;;;;;54.47;33.90;;;10.20;99.90;;;;;;5016022;28;20025;-91
2024/03/05 09:42:23;;;;;;;56.33;34.67;;;10.20;99.90;;;;;;5010322;28;20037;-92
2024/03/05 09:44:50;;;;;;;53.55;33.58;;;10.30;99.90;;;;;;5029757;28;20112;-91
2024/03/05 09:47:17;;;;;;;53.22;33.22;;;10.30;99.90;;;;;;5029443;28;20033;-90
2024/03/05 09:49:45;;;;;;;55.78;34.72;;;10.30;99.90;;;;;;5002872;28;20030;-91
2024/03/05 09:52:13;;;;;;;57.53;33.15;;;10.40;99.90;;;;;;5019971;28;20038;-91
2024/03/05 09:54:41;;;;;;;54.92;32.30;;;10.40;99.90;;;;;;5015353;28;20084;-89
2024/03/05 09:57:07;;;;;;;55.05;33.53;;;10.40;99.90;;;;;;5025070;28;20048;-90
2024/03/05 09:59:40;;;;;;;52.85;31.98;;;10.40;99.90;;;;;;5018242;28;20541;-89
2024/03/05 10:02:09;;;;;;;54.78;32.95;;;10.50;99.90;;;;;;5015392;28;20025;-90
2024/03/05 10:04:40;;;;;;;50.92;31.50;;;10.50;99.90;;;;;;5016669;28;20030;-89
2024/03/05 10:07:07;;;;;;;51.10;31.15;;;10.50;99.90;;;;;;5004416;28;20034;-90
2024/03/05 10:09:35;;;;;;;51.00;30.90;;;10.60;99.90;;;;;;4996242;28;20033;-92
2024/03/05 10:12:03;;;;;;;52.05;31.65;;;10.60;99.90;;;;;;5019297;28;20136;-90
2024/03/05 10:14:29;;;;;;;50.60;31.38;;;10.70;99.90;;;;;;5018674;28;20021;-90
2024/03/05 10:17:00;;;;;;;49.85;32.00;;;10.70;99.90;;;;;;5015761;28;20512;-92
2024/03/05 10:19:26;;;;;;;49.45;31.75;;;10.70;99.90;;;;;;5017643;28;20049;-92
2024/03/05 10:21:52;;;;;;;48.78;30.77;;;10.70;99.90;;;;;;5012463;28;20033;-91
2024/03/05 10:24:31;;;;;;;46.75;29.27;;;10.70;99.90;;;;;;5014540;28;20094;-91
2024/03/05 10:27:00;;;;;;;48.30;31.83;;;10.80;99.90;;;;;;5008609;28;20386;-90
2024/03/05 10:29:34;;;;;;;46.03;29.67;;;10.80;99.90;;;;;;5029826;28;20049;-91
2024/03/05 10:32:11;;;;;;;47.15;30.80;;;10.80;99.90;;;;;;5053361;28;20052;-91
2024/03/05 10:34:59;;;;;;;47.28;30.75;;;10.80;99.90;;;;;;5045859;28;20140;-91
2024/03/05 10:37:24;;;;;;;47.88;30.85;;;10.80;99.90;;;;;;5043152;28;20101;-89
2024/03/05 10:39:51;;;;;;;50.80;29.95;;;10.80;99.90;;;;;;4998545;28;20033;-91
2024/03/05 10:42:17;;;;;;;42.85;28.30;;;10.90;99.90;;;;;;4994397;28;20045;-89
2024/03/05 10:44:46;;;;;;;44.25;28.70;;;10.90;99.90;;;;;;5011344;28;20037;-92
2024/03/05 10:47:13;;;;;;;40.20;27.40;;;10.90;99.90;;;;;;5014199;28;20029;-90
2024/03/05 10:49:40;;;;;;;40.88;27.80;;;10.90;99.90;;;;;;5012479;28;20371;-90
2024/03/05 10:52:09;;;;;;;40.67;25.98;;;10.80;99.90;;;;;;5014219;28;20026;-90
2024/03/05 10:54:36;;;;;;;34.50;23.90;;;10.90;99.90;;;;;;5017775;28;20485;-88
2024/03/05 10:57:02;;;;;;;33.33;21.38;;;10.90;99.90;;;;;;5014631;28;20030;-89
2024/03/05 10:59:40;;;;;;;28.73;20.42;;;10.80;99.90;;;;;;5015592;28;20070;-89
2024/03/05 11:02:27;;;;;;;29.13;20.25;;;10.80;99.90;;;;;;5000761;28;20030;-92
2024/03/05 11:04:54;;;;;;;29.20;19.98;;;10.80;99.90;;;;;;5014484;28;20033;-91
2024/03/05 11:07:21;;;;;;;27.60;20.35;;;10.80;99.90;;;;;;5014599;28;20040;-90
2024/03/05 11:09:51;;;;;;;27.33;18.90;;;10.80;99.90;;;;;;4997905;28;20486;-90
2024/03/05 11:12:19;;;;;;;27.52;19.35;;;10.80;99.90;;;;;;5015469;28;20068;-91
2024/03/05 11:14:46;;;;;;;30.00;19.38;;;10.80;99.90;;;;;;5014686;28;20028;-90
2024/03/05 11:17:11;;;;;;;26.15;18.40;;;10.80;99.90;;;;;;5015281;28;20049;-91
2024/03/05 11:19:47;;;;;;;25.15;16.45;;;10.80;99.90;;;;;;5014676;28;20029;-91
2024/03/05 11:22:24;;;;;;;24.80;16.83;;;10.80;99.90;;;;;;5014729;28;20421;-90
2024/03/05 11:24:56;;;;;;;25.13;17.13;;;10.80;99.90;;;;;;5015667;28;20029;-89
2024/03/05 11:27:30;;;;;;;25.02;16.98;;;10.80;99.90;;;;;;5015510;28;20026;-91
2024/03/05 11:30:11;;;;;;;24.15;16.83;;;10.80;99.90;;;;;;5017154;28;20018;-91
2024/03/05 11:32:43;;;;;;;22.92;16.63;;;10.70;99.90;;;;;;5017094;28;20018;-91
2024/03/05 11:35:13;;;;;;;22.20;16.48;;;10.70;99.90;;;;;;5001462;28;20470;-91
2024/03/05 11:37:52;;;;;;;25.35;16.92;;;10.70;99.90;;;;;;5017371;28;20029;-90
2024/03/05 11:40:23;;;;;;;21.88;17.38;;;10.60;99.90;;;;;;5018083;28;20026;-92
2024/03/05 11:42:54;;;;;;;23.13;16.20;;;10.60;99.90;;;;;;5009661;28;20117;-91
2024/03/05 11:45:43;;;;;;;25.02;17.90;;;10.50;99.90;;;;;;5030573;28;20026;-90
2024/03/05 11:48:11;;;;;;;24.15;17.60;;;10.50;99.90;;;;;;5015263;28;20022;-92
2024/03/05 11:50:38;;;;;;;25.73;17.55;;;10.50;99.90;;;;;;5019503;28;20032;-91
2024/03/05 11:53:08;;;;;;;24.77;17.70;;;10.40;99.90;;;;;;5035604;28;20005;-91
2024/03/05 11:55:35;;;;;;;25.55;17.52;;;10.50;99.90;;;;;;5034861;28;20025;-91
2024/03/05 11:58:01;;;;;;;23.23;16.63;;;10.50;99.90;;;;;;5024083;28;20034;-92
2024/03/05 12:00:28;;;;;;;23.85;17.38;;;10.40;99.90;;;;;;5016671;28;20080;-92
2024/03/05 12:02:56;;;;;;;28.15;18.00;;;10.40;99.90;;;;;;5032719;28;20089;-86
2024/03/05 12:05:23;;;;;;;23.77;17.48;;;10.50;99.90;;;;;;5035484;28;20037;-92
2024/03/05 12:08:01;;;;;;;23.23;17.40;;;10.50;99.90;;;;;;5036295;28;20022;-90
2024/03/05 12:10:31;;;;;;;24.17;17.55;;;10.40;99.90;;;;;;5026281;28;20448;-90
2024/03/05 12:13:06;;;;;;;24.73;17.30;;;10.40;99.90;;;;;;5016863;28;20022;-91
2024/03/05 12:15:39;;;;;;;26.08;17.70;;;10.40;99.90;;;;;;5015372;28;20436;-90
2024/03/05 12:18:12;;;;;;;24.08;16.70;;;10.40;99.90;;;;;;5013891;28;20037;-90
2024/03/05 12:20:41;;;;;;;28.33;18.35;;;10.40;99.90;;;;;;5014371;28;20076;-90
2024/03/05 12:23:10;;;;;;;25.35;17.50;;;10.40;99.90;;;;;;5016286;28;20080;-90
2024/03/05 12:25:36;;;;;;;26.00;17.90;;;10.40;99.90;;;;;;5002084;28;20026;-89
2024/03/05 12:28:02;;;;;;;24.02;17.20;;;10.40;99.90;;;;;;4985466;28;20504;-89
2024/03/05 12:30:32;;;;;;;24.83;17.23;;;10.40;99.90;;;;;;5001507;28;20029;-91
2024/03/05 12:32:59;;;;;;;27.00;17.15;;;10.40;99.90;;;;;;5017596;28;20029;-89
2024/03/05 12:35:25;;;;;;;24.13;16.52;;;10.40;99.90;;;;;;5001442;28;20030;-90
2024/03/05 12:37:51;;;;;;;24.42;16.65;;;10.30;99.90;;;;;;5018574;28;20049;-92
2024/03/05 12:40:19;;;;;;;24.13;16.85;;;10.30;99.90;;;;;;5001366;28;20183;-92
2024/03/05 12:42:51;;;;;;;24.02;17.40;;;10.30;99.90;;;;;;5001450;28;20034;-92
2024/03/05 12:45:29;;;;;;;22.55;16.48;;;10.30;99.90;;;;;;5016934;28;20029;-91
2024/03/05 12:48:00;;;;;;;25.30;17.05;;;10.30;99.90;;;;;;5017087;28;20481;-90
2024/03/05 12:50:26;;;;;;;25.67;17.47;;;10.30;99.90;;;;;;5012080;28;20022;-92
2024/03/05 12:53:03;;;;;;;21.60;16.60;;;10.30;99.90;;;;;;5002644;28;20029;-89
2024/03/05 12:55:30;;;;;;;22.42;16.60;;;10.20;99.90;;;;;;5002171;28;20030;-91
2024/03/05 12:58:11;;;;;;;24.17;16.83;;;10.20;99.90;;;;;;5007556;28;20114;-91
2024/03/05 13:00:38;;;;;;;;;;;10.20;99.90;;;;;;4985987;28;20039;-90
2024/03/05 13:03:05;;;;;;;24.88;16.63;;;10.30;99.90;;;;;;5016220;28;19905;-90
2024/03/05 13:05:37;;;;;;;22.10;16.95;;;10.30;99.90;;;;;;4998210;28;20057;-90